地図

経路データ

SID SEASON NUMBER BASIN SUBBASIN NAME ISO_TIME NATURE LAT LON WMO_WIND WMO_PRES WMO_AGENCY TRACK_TYPE DIST2LAND LANDFALL IFLAG USA_AGENCY USA_ATCF_ID USA_LAT USA_LON USA_RECORD USA_STATUS USA_WIND USA_PRES USA_SSHS USA_R34_NE USA_R34_SE USA_R34_SW USA_R34_NW USA_R50_NE USA_R50_SE USA_R50_SW USA_R50_NW USA_R64_NE USA_R64_SE USA_R64_SW USA_R64_NW USA_POCI USA_ROCI USA_RMW USA_EYE TOKYO_LAT TOKYO_LON TOKYO_GRADE TOKYO_WIND TOKYO_PRES TOKYO_R50_DIR TOKYO_R50_LONG TOKYO_R50_SHORT TOKYO_R30_DIR TOKYO_R30_LONG TOKYO_R30_SHORT TOKYO_LAND CMA_LAT CMA_LON CMA_CAT CMA_WIND CMA_PRES HKO_LAT HKO_LON HKO_CAT HKO_WIND HKO_PRES NEWDELHI_LAT NEWDELHI_LON NEWDELHI_GRADE NEWDELHI_WIND NEWDELHI_PRES NEWDELHI_CI NEWDELHI_DP NEWDELHI_POCI REUNION_LAT REUNION_LON REUNION_TYPE REUNION_WIND REUNION_PRES REUNION_TNUM REUNION_CI REUNION_RMW REUNION_R34_NE REUNION_R34_SE REUNION_R34_SW REUNION_R34_NW REUNION_R50_NE REUNION_R50_SE REUNION_R50_SW REUNION_R50_NW REUNION_R64_NE REUNION_R64_SE REUNION_R64_SW REUNION_R64_NW BOM_LAT BOM_LON BOM_TYPE BOM_WIND BOM_PRES BOM_TNUM BOM_CI BOM_RMW BOM_R34_NE BOM_R34_SE BOM_R34_SW BOM_R34_NW BOM_R50_NE BOM_R50_SE BOM_R50_SW BOM_R50_NW BOM_R64_NE BOM_R64_SE BOM_R64_SW BOM_R64_NW BOM_ROCI BOM_POCI BOM_EYE BOM_POS_METHOD BOM_PRES_METHOD NADI_LAT NADI_LON NADI_CAT NADI_WIND NADI_PRES WELLINGTON_LAT WELLINGTON_LON WELLINGTON_WIND WELLINGTON_PRES DS824_LAT DS824_LON DS824_STAGE DS824_WIND DS824_PRES TD9636_LAT TD9636_LON TD9636_STAGE TD9636_WIND TD9636_PRES TD9635_LAT TD9635_LON TD9635_WIND TD9635_PRES TD9635_ROCI NEUMANN_LAT NEUMANN_LON NEUMANN_CLASS NEUMANN_WIND NEUMANN_PRES MLC_LAT MLC_LON MLC_CLASS MLC_WIND MLC_PRES USA_GUST BOM_GUST BOM_GUST_PER REUNION_GUST REUNION_GUST_PER USA_SEAHGT USA_SEARAD_NE USA_SEARAD_SE USA_SEARAD_SW USA_SEARAD_NW STORM_SPEED STORM_DIR
1907345S11046 1908 65 SI MM NOT_NAMED 1907-12-11 06:00:00 NR -11.0000 46.0000 reunion main 348 342 _____O________ -1 -11.0000 46.0000 99 9.90000 4 224
1907345S11046 1908 65 SI MM NOT_NAMED 1907-12-11 09:00:00 NR -11.1402 45.8649 main 352 352 _____P________ -1 -11.1402 45.8649 99 4 226
1907345S11046 1908 65 SI MM NOT_NAMED 1907-12-11 12:00:00 NR -11.2860 45.6963 main 358 358 _____P____O___ -1 -11.2813 45.7283 99 -11.3000 45.6000 7 4 229
1907345S11046 1908 65 SI MM NOT_NAMED 1907-12-11 15:00:00 NR -11.4334 45.5260 main 366 358 _____P____P___ -1 -11.4242 45.5889 99 -11.4517 45.4001 7 5 229
1907345S11046 1908 65 SI MM NOT_NAMED 1907-12-11 18:00:00 NR -11.5883 45.3401 main 367 360 _____P____P___ -1 -11.5700 45.4452 99 -11.6126 45.2000 7 5 229
1907345S11046 1908 65 SI MM NOT_NAMED 1907-12-11 21:00:00 NR -11.7559 45.1479 main 370 370 _____P____P___ -1 -11.7195 45.2958 99 -11.7923 45.0000 7 5 226
1907345S11046 1908 65 SI MM NOT_NAMED 1907-12-12 00:00:00 NR -11.9368 44.9697 main 373 371 _____P____O___ -1 -11.8737 45.1395 99 -12.0000 44.8000 7 5 223
1907345S11046 1908 65 SI MM NOT_NAMED 1907-12-12 03:00:00 NR -12.1371 44.7873 main 380 375 _____P____P___ -1 -12.0336 44.9747 99 -12.2406 44.6000 7 6 221
1907345S11046 1908 65 SI MM NOT_NAMED 1907-12-12 06:00:00 NR -12.3500 44.6000 reunion main 390 386 _____O____P___ -1 -12.2000 44.8000 99 9.90000 -12.4999 44.4001 7 6 221
1907345S11046 1908 65 SI MM NOT_NAMED 1907-12-12 09:00:00 NR -12.5666 44.4074 main 388 371 _____P____P___ -1 -12.3738 44.6147 99 -12.7593 44.2000 7 6 222
1907345S11046 1908 65 SI MM NOT_NAMED 1907-12-12 12:00:00 NR -12.7776 44.2103 main 371 356 _____P____O___ -1 -12.5551 44.4205 99 -13.0000 44.0000 7 6 224
1907345S11046 1908 65 SI MM NOT_NAMED 1907-12-12 15:00:00 NR -12.9682 44.0057 main 356 348 _____P____P___ -1 -12.7439 44.2197 99 -13.1925 43.7917 7 6 227
1907345S11046 1908 65 SI MM NOT_NAMED 1907-12-12 18:00:00 NR -13.1526 43.7998 main 343 324 _____P____P___ -1 -12.9402 44.0148 99 -13.3650 43.5848 7 5 227
1907345S11046 1908 65 SI MM NOT_NAMED 1907-12-12 21:00:00 NR -13.3370 43.5967 main 324 302 _____P____P___ -1 -13.1439 43.8079 99 -13.5300 43.3855 7 5 226
1907345S11046 1908 65 SI MM NOT_NAMED 1907-12-13 00:00:00 NR -13.5276 43.4008 main 302 274 _____P____O___ -1 -13.3551 43.6016 99 -13.7000 43.2000 7 5 223
1907345S11046 1908 65 SI MM NOT_NAMED 1907-12-13 03:00:00 NR -13.7292 43.2209 main 274 256 _____P____P___ -1 -13.5738 43.3982 99 -13.8846 43.0435 7 5 220
1907345S11046 1908 65 SI MM NOT_NAMED 1907-12-13 06:00:00 NR -13.9387 43.0499 reunion main 246 230 _____O____P___ -1 -13.8000 43.2000 99 9.90000 -14.0773 42.8997 7 5 218
1907345S11046 1908 65 SI MM NOT_NAMED 1907-12-13 09:00:00 NR -14.1593 42.8792 main 228 204 _____P____P___ -1 -14.0371 43.0024 99 -14.2814 42.7560 7 6 217
1907345S11046 1908 65 SI MM NOT_NAMED 1907-12-13 12:00:00 NR -14.3917 42.7037 main 204 183 _____P____O___ -1 -14.2834 42.8074 99 -14.5000 42.6000 7 6 217
1907345S11046 1908 65 SI MM NOT_NAMED 1907-12-13 15:00:00 NR -14.6359 42.5076 main 183 161 _____P____P___ -1 -14.5361 42.6170 99 -14.7357 42.3983 7 6 218
1907345S11046 1908 65 SI MM NOT_NAMED 1907-12-13 18:00:00 NR -14.8888 42.3091 main 161 140 _____P____P___ -1 -14.7925 42.4329 99 -14.9851 42.1852 7 6 216
1907345S11046 1908 65 SI MM NOT_NAMED 1907-12-13 21:00:00 NR -15.1459 42.1184 main 140 130 _____P____P___ -1 -15.0499 42.2572 99 -15.2420 41.9795 7 6 214
1907345S11046 1908 65 SI MM NOT_NAMED 1907-12-14 00:00:00 NR -15.4027 41.9459 main 126 126 _____P____O___ -1 -15.3054 42.0919 99 -15.5000 41.8000 7 6 211
1907345S11046 1908 65 SI MM NOT_NAMED 1907-12-14 03:00:00 NR -15.6551 41.8029 main 132 126 _____P____P___ -1 -15.5563 41.9388 99 -15.7540 41.6670 7 6 207
1907345S11046 1908 65 SI MM NOT_NAMED 1907-12-14 06:00:00 NR -15.9037 41.6811 reunion main 130 126 _____O____P___ -1 -15.8000 41.8000 99 9.90000 -16.0074 41.5623 7 5 205
1907345S11046 1908 65 SI MM NOT_NAMED 1907-12-14 09:00:00 NR -16.1379 41.5713 main 132 130 _____P____P___ -1 -16.0186 41.6663 99 -16.2571 41.4764 7 5 204
1907345S11046 1908 65 SI MM NOT_NAMED 1907-12-14 12:00:00 NR -16.3650 41.4729 main 141 132 _____P____O___ -1 -16.2301 41.5458 99 -16.5000 41.4000 7 5 203
1907345S11046 1908 65 SI MM NOT_NAMED 1907-12-14 15:00:00 NR -16.5805 41.3761 main 146 146 _____P____P___ -1 -16.4370 41.4386 99 -16.7240 41.3137 7 5 203
1907345S11046 1908 65 SI MM NOT_NAMED 1907-12-14 18:00:00 NR -16.7924 41.2897 main 154 150 _____P____P___ -1 -16.6422 41.3446 99 -16.9425 41.2349 7 5 200
1907345S11046 1908 65 SI MM NOT_NAMED 1907-12-14 21:00:00 NR -17.0065 41.2137 main 156 156 _____P____P___ -1 -16.8484 41.2638 99 -17.1647 41.1637 7 5 198
1907345S11046 1908 65 SI MM NOT_NAMED 1907-12-15 00:00:00 NR -17.2291 41.1480 main 159 159 _____P____O___ -1 -17.0583 41.1961 99 -17.4000 41.1000 7 5 195
1907345S11046 1908 65 SI MM NOT_NAMED 1907-12-15 03:00:00 NR -17.4676 41.0861 main 177 177 _____P____P___ -1 -17.2746 41.1415 99 -17.6606 41.0307 7 5 192
1907345S11046 1908 65 SI MM NOT_NAMED 1907-12-15 06:00:00 NR -17.7175 41.0351 reunion main 185 185 _____O____P___ -1 -17.5000 41.1000 99 9.90000 -17.9350 40.9701 7 5 189
1907345S11046 1908 65 SI MM NOT_NAMED 1907-12-15 09:00:00 NR -17.9870 40.9921 main 210 210 _____P____P___ -1 -17.7572 41.0596 99 -18.2169 40.9245 7 6 188
1907345S11046 1908 65 SI MM NOT_NAMED 1907-12-15 12:00:00 NR -18.2623 40.9666 main 238 238 _____P____O___ -1 -18.0245 41.0331 99 -18.5000 40.9000 7 6 183
1907345S11046 1908 65 SI MM NOT_NAMED 1907-12-15 15:00:00 NR -18.5445 40.9593 main 257 257 _____P____P___ -1 -18.2977 41.0194 99 -18.7912 40.8993 7 6 0
1907345S11046 1908 65 SI MM NOT_NAMED 1907-12-15 18:00:00 NR -18.8262 40.9685 main 284 284 _____P____P___ -1 -18.5723 41.0172 99 -19.0800 40.9198 7 6 177
1907345S11046 1908 65 SI MM NOT_NAMED 1907-12-15 21:00:00 NR -19.0990 40.9904 main 309 309 _____P____P___ -1 -18.8442 41.0253 99 -19.3537 40.9555 7 5 174
1907345S11046 1908 65 SI MM NOT_NAMED 1907-12-16 00:00:00 NR -19.3545 41.0213 main 334 320 _____P____O___ -1 -19.1090 41.0426 99 -19.6000 41.0000 7 5 174
1907345S11046 1908 65 SI MM NOT_NAMED 1907-12-16 03:00:00 NR -19.5871 41.0554 main 320 307 _____P____P___ -1 -19.3623 41.0679 99 -19.8119 41.0428 7 5 172
1907345S11046 1908 65 SI MM NOT_NAMED 1907-12-16 06:00:00 NR -19.7975 41.0962 reunion main 307 294 _____O____P___ -1 -19.6000 41.1000 99 9.90000 -19.9950 41.0925 7 4 170
1907345S11046 1908 65 SI MM NOT_NAMED 1907-12-16 09:00:00 NR -19.9825 41.1330 main 294 279 _____P____P___ -1 -19.8094 41.1200 99 -20.1556 41.1459 7 4 170
1907345S11046 1908 65 SI MM NOT_NAMED 1907-12-16 12:00:00 NR -20.1521 41.1735 main 274 268 _____P____O___ -1 -20.0042 41.1471 99 -20.3000 41.2000 7 3 168
1907345S11046 1908 65 SI MM NOT_NAMED 1907-12-16 15:00:00 NR -20.3090 41.2100 main 268 263 _____P____P___ -1 -20.1869 41.1820 99 -20.4312 41.2380 7 3 166
1907345S11046 1908 65 SI MM NOT_NAMED 1907-12-16 18:00:00 NR -20.4548 41.2516 main 249 245 _____P____P___ -1 -20.3597 41.2254 99 -20.5499 41.2777 7 3 163
1907345S11046 1908 65 SI MM NOT_NAMED 1907-12-16 21:00:00 NR -20.5969 41.3034 main 245 231 _____P____P___ -1 -20.5251 41.2782 99 -20.6687 41.3286 7 3 159
1907345S11046 1908 65 SI MM NOT_NAMED 1907-12-17 00:00:00 NR -20.7427 41.3705 main 231 214 _____P____O___ -1 -20.6854 41.3410 99 -20.8000 41.4000 7 3 154
1907345S11046 1908 65 SI MM NOT_NAMED 1907-12-17 03:00:00 NR -20.9018 41.4590 main 214 199 _____P____P___ -1 -20.8429 41.4147 99 -20.9607 41.5034 7 4 151
1907345S11046 1908 65 SI MM NOT_NAMED 1907-12-17 06:00:00 NR -21.0675 41.5637 reunion main 199 187 _____O____P___ -1 -21.0000 41.5000 99 9.90000 -21.1350 41.6274 7 4 150
1907345S11046 1908 65 SI MM NOT_NAMED 1907-12-17 09:00:00 NR -21.2400 41.6677 main 187 168 _____P____P___ -1 -21.1630 41.5727 99 -21.3169 41.7628 7 4 150
1907345S11046 1908 65 SI MM NOT_NAMED 1907-12-17 12:00:00 NR -21.4117 41.7775 main 168 149 _____P____O___ -1 -21.3234 41.6551 99 -21.5000 41.9000 7 4 150
1907345S11046 1908 65 SI MM NOT_NAMED 1907-12-17 15:00:00 NR -21.5746 41.8733 main 149 135 _____P____P___ -1 -21.4825 41.7497 99 -21.6666 41.9970 7 4 150
1907345S11046 1908 65 SI MM NOT_NAMED 1907-12-17 18:00:00 NR -21.7380 41.9787 main 135 118 _____P____P___ -1 -21.6414 41.8592 99 -21.8346 42.0982 7 4 147
1907345S11046 1908 65 SI MM NOT_NAMED 1907-12-17 21:00:00 NR -21.9058 42.1058 main 118 93 _____P____P___ -1 -21.8014 41.9863 99 -22.0103 42.2253 7 4 142
1907345S11046 1908 65 SI MM NOT_NAMED 1907-12-18 00:00:00 NR -22.0818 42.2668 main 93 71 _____P____O___ -1 -21.9637 42.1336 99 -22.2000 42.4000 7 5 137
1907345S11046 1908 65 SI MM NOT_NAMED 1907-12-18 03:00:00 NR -22.2783 42.4766 main 71 52 _____P____P___ -1 -22.1295 42.3040 99 -22.4271 42.6493 7 6 133
1907345S11046 1908 65 SI MM NOT_NAMED 1907-12-18 06:00:00 NR -22.4826 42.7234 reunion main 56 38 _____O____P___ -1 -22.3000 42.5000 99 9.90000 -22.6652 42.9469 7 6 131
1907345S11046 1908 65 SI MM NOT_NAMED 1907-12-18 09:00:00 NR -22.6939 42.9988 main 38 15 _____P____P___ -1 -22.4919 42.7264 99 -22.8958 43.2711 7 7 128
1907345S11046 1908 65 SI MM NOT_NAMED 1907-12-18 12:00:00 NR -22.8949 43.2901 main 15 0 _____P____O___ -1 -22.6897 42.9803 99 -23.1000 43.6000 7 7 125
1907345S11046 1908 65 SI MM NOT_NAMED 1907-12-18 15:00:00 NR -23.0696 43.5806 main 0 0 _____P____P___ -1 -22.8897 43.2567 99 -23.2496 43.9046 7 6 122
1907345S11046 1908 65 SI MM NOT_NAMED 1907-12-18 18:00:00 NR -23.2304 43.8794 main 0 0 _____P____P___ -1 -23.0884 43.5507 99 -23.3723 44.2082 7 6 120
1907345S11046 1908 65 SI MM NOT_NAMED 1907-12-18 21:00:00 NR -23.3831 44.1824 main 0 0 _____P____P___ -1 -23.2822 43.8571 99 -23.4839 44.5076 7 6 119
1907345S11046 1908 65 SI MM NOT_NAMED 1907-12-19 00:00:00 NR -23.5338 44.4855 main 0 0 _____P____O___ -1 -23.4677 44.1710 99 -23.6000 44.8000 7 6 120
1907345S11046 1908 65 SI MM NOT_NAMED 1907-12-19 03:00:00 NR -23.6961 44.7846 main 0 0 _____P____P___ -1 -23.6414 44.4870 99 -23.7507 45.0822 7 6 120
1907345S11046 1908 65 SI MM NOT_NAMED 1907-12-19 06:00:00 NR -23.8536 45.0788 reunion main 0 0 _____O____P___ -1 -23.8000 44.8000 99 9.90000 -23.9072 45.3575 7 6 120
1907345S11046 1908 65 SI MM NOT_NAMED 1907-12-19 09:00:00 NR -23.9971 45.3596 main 0 0 _____P____P___ -1 -23.9341 45.0902 99 -24.0601 45.6291 7 6 118
1907345S11046 1908 65 SI MM NOT_NAMED 1907-12-19 12:00:00 NR -24.1269 45.6402 main 0 0 _____P____O___ -1 -24.0538 45.3805 99 -24.2000 45.9000 7 6 115
1907345S11046 1908 65 SI MM NOT_NAMED 1907-12-19 15:00:00 NR -24.2407 45.9215 main 0 0 _____P____P___ -1 -24.1614 45.6703 99 -24.3199 46.1728 7 5 113
1907345S11046 1908 65 SI MM NOT_NAMED 1907-12-19 18:00:00 NR -24.3294 46.1684 main 0 0 _____P____P___ -1 -24.2593 45.9593 99 -24.4229 46.4473 7 5 110
1907345S11046 1908 65 SI MM NOT_NAMED 1907-12-19 21:00:00 NR -24.4046 46.4058 main 0 0 _____P____P___ -1 -24.3497 46.2471 99 -24.5145 46.7233 7 4 108
1907345S11046 1908 65 SI MM NOT_NAMED 1907-12-20 00:00:00 NR -24.4681 46.6267 main 0 0 _____P____O___ -1 -24.4351 46.5334 99 -24.6000 47.0000 7 4 107
1907345S11046 1908 65 SI MM NOT_NAMED 1907-12-20 03:00:00 NR -24.5177 46.8178 main 0 0 _____P________ -1 -24.5177 46.8178 99 7 5 107
1907345S11046 1908 65 SI MM NOT_NAMED 1907-12-20 06:00:00 NR -24.6000 47.1000 reunion main 0 0 _____O________ -1 -24.6000 47.1000 99 9.90000 7 5 108
1907345S11046 1908 65 SI MM NOT_NAMED 1907-12-20 09:00:00 NR -24.6838 47.3799 main 20 20 _____P________ -1 -24.6838 47.3799 99 7 5 108
1907345S11046 1908 65 SI MM NOT_NAMED 1907-12-20 12:00:00 NR -24.7693 47.6576 main 51 51 _____P________ -1 -24.7693 47.6576 99 5 109
1907345S11046 1908 65 SI MM NOT_NAMED 1907-12-20 15:00:00 NR -24.8561 47.9336 main 74 74 _____P________ -1 -24.8561 47.9336 99 5 109
1907345S11046 1908 65 SI MM NOT_NAMED 1907-12-20 18:00:00 NR -24.9440 48.2082 main 101 101 _____P________ -1 -24.9440 48.2082 99 5 110
1907345S11046 1908 65 SI MM NOT_NAMED 1907-12-20 21:00:00 NR -25.0326 48.4818 main 133 133 _____P________ -1 -25.0326 48.4818 99 5 110
1907345S11046 1908 65 SI MM NOT_NAMED 1907-12-21 00:00:00 NR -25.1217 48.7547 main 165 165 _____P________ -1 -25.1217 48.7547 99 5 110
1907345S11046 1908 65 SI MM NOT_NAMED 1907-12-21 03:00:00 NR -25.2110 49.0274 main 188 188 _____P________ -1 -25.2110 49.0274 99 5 110
1907345S11046 1908 65 SI MM NOT_NAMED 1907-12-21 06:00:00 NR -25.3000 49.3000 reunion main 220 _____O________ -1 -25.3000 49.3000 99 9.90000 5 110

IBTrACS Databaseについて

本データベースは、米国NOAAが公開する1842年以降の世界の熱帯低気圧のベストトラックデータアーカイブInternational Best Track Archive for Climate Stewardship (IBTrACS)を、ウェブで閲覧しやすい形式に変換したものです。

最終更新日:2021-11-26